createdAt,value
2018-01-28T00:00:47.962Z,1016.8
2018-01-28T00:01:50.061Z,1016.8
2018-01-28T00:02:51.663Z,1016.7
2018-01-28T00:03:53.269Z,1016.7
2018-01-28T00:04:55.735Z,1016.7
2018-01-28T00:05:57.535Z,1016.7
2018-01-28T00:06:59.448Z,1016.8
2018-01-28T00:08:01.265Z,1016.7
2018-01-28T00:09:02.868Z,1016.7
2018-01-28T00:10:04.610Z,1016.8
2018-01-28T00:11:06.246Z,1016.8
2018-01-28T00:12:07.850Z,1016.8
2018-01-28T00:13:09.456Z,1016.8
2018-01-28T00:14:11.269Z,1016.8
2018-01-28T00:15:13.057Z,1016.8
2018-01-28T00:16:14.663Z,1016.8
2018-01-28T00:17:16.270Z,1016.8
2018-01-28T00:18:17.873Z,1016.8
2018-01-28T00:19:19.583Z,1016.8
2018-01-28T00:20:21.515Z,1016.8
2018-01-28T00:21:23.124Z,1016.8
2018-01-28T00:22:24.730Z,1016.8
2018-01-28T00:23:26.334Z,1016.7
2018-01-28T00:24:27.942Z,1016.8
2018-01-28T00:25:29.547Z,1016.8
2018-01-28T00:26:31.197Z,1016.8
2018-01-28T00:27:32.772Z,1016.8
2018-01-28T00:28:34.376Z,1016.8
2018-01-28T00:29:35.987Z,1016.8
2018-01-28T00:30:37.591Z,1016.7
2018-01-28T00:31:39.198Z,1016.7
2018-01-28T00:32:40.802Z,1016.7
2018-01-28T00:33:42.411Z,1016.7
2018-01-28T00:34:44.016Z,1016.7
2018-01-28T00:35:45.631Z,1016.6
2018-01-28T00:36:47.229Z,1016.7
2018-01-28T00:37:48.841Z,1016.6
2018-01-28T00:38:50.442Z,1016.7
2018-01-28T00:39:52.051Z,1016.7
2018-01-28T00:40:53.651Z,1016.7
2018-01-28T00:41:55.255Z,1016.7
2018-01-28T00:42:56.865Z,1016.7
2018-01-28T00:43:58.468Z,1016.7
2018-01-28T00:45:00.082Z,1016.6
2018-01-28T00:46:01.683Z,1016.6
2018-01-28T00:47:03.291Z,1016.6
2018-01-28T00:48:04.895Z,1016.7
2018-01-28T00:49:06.507Z,1016.6
2018-01-28T00:50:08.109Z,1016.6
2018-01-28T00:51:09.717Z,1016.6
2018-01-28T00:52:11.323Z,1016.6
2018-01-28T00:53:12.930Z,1016.5
2018-01-28T00:54:14.534Z,1016.6
2018-01-28T00:55:16.142Z,1016.5
2018-01-28T00:56:17.746Z,1016.5
2018-01-28T00:57:19.353Z,1016.4
2018-01-28T00:58:20.955Z,1016.4
2018-01-28T00:59:22.564Z,1016.4
2018-01-28T01:00:24.164Z,1016.4
2018-01-28T01:01:25.772Z,1016.3
2018-01-28T01:02:27.374Z,1016.4
2018-01-28T01:03:28.985Z,1016.3
2018-01-28T01:04:30.588Z,1016.3
2018-01-28T01:05:32.204Z,1016.3
2018-01-28T01:06:33.807Z,1016.4
2018-01-28T01:07:35.411Z,1016.3
2018-01-28T01:08:37.014Z,1016.4
2018-01-28T01:09:38.622Z,1016.3
2018-01-28T01:10:40.231Z,1016.2
2018-01-28T01:11:41.838Z,1016.3
2018-01-28T01:12:43.434Z,1016.3
2018-01-28T01:13:45.047Z,1016.4
2018-01-28T01:14:46.651Z,1016.4
2018-01-28T01:15:48.252Z,1016.3
2018-01-28T01:16:49.856Z,1016.3
2018-01-28T01:17:51.466Z,1016.3
2018-01-28T01:18:53.076Z,1016.3
2018-01-28T01:19:54.679Z,1016.2
2018-01-28T01:20:56.287Z,1016.3
2018-01-28T01:21:57.893Z,1016.2
2018-01-28T01:22:59.501Z,1016.3
2018-01-28T01:24:01.102Z,1016.2
2018-01-28T01:25:02.709Z,1016.2
2018-01-28T01:26:04.318Z,1016.1
2018-01-28T01:27:05.928Z,1016.1
2018-01-28T01:28:07.533Z,1016.1
2018-01-28T01:29:09.135Z,1016.1
2018-01-28T01:30:10.743Z,1016.2
2018-01-28T01:31:12.350Z,1016.3
2018-01-28T01:32:13.950Z,1016.3
2018-01-28T01:33:15.555Z,1016.3
2018-01-28T01:34:17.166Z,1016.3
2018-01-28T01:35:18.773Z,1016.4
2018-01-28T01:36:20.380Z,1016.5
2018-01-28T01:37:21.978Z,1016.4
2018-01-28T01:38:23.586Z,1016.5
2018-01-28T01:39:25.196Z,1016.5
2018-01-28T01:40:26.799Z,1016.6
2018-01-28T01:41:28.407Z,1016.7
2018-01-28T01:42:30.011Z,1016.5
2018-01-28T01:43:31.617Z,1016.6
2018-01-28T01:44:33.217Z,1016.6
2018-01-28T01:45:34.826Z,1016.5
2018-01-28T01:46:36.427Z,1016.6
2018-01-28T01:47:38.039Z,1016.6
2018-01-28T01:48:39.645Z,1016.5
2018-01-28T01:49:41.254Z,1016.6
2018-01-28T01:50:42.853Z,1016.5
2018-01-28T01:51:44.506Z,1016.5
2018-01-28T01:52:46.066Z,1016.5
2018-01-28T01:53:47.677Z,1016.4
2018-01-28T01:54:49.279Z,1016.7
2018-01-28T01:55:50.886Z,1016.5
2018-01-28T01:56:52.496Z,1016.5
2018-01-28T01:57:54.103Z,1016.4
2018-01-28T01:58:55.708Z,1016.6
2018-01-28T01:59:57.314Z,1016.5
2018-01-28T02:00:58.922Z,1016.5
2018-01-28T02:02:00.521Z,1016.5
2018-01-28T02:03:02.131Z,1016.6
2018-01-28T02:04:03.789Z,1016.6
2018-01-28T02:05:05.338Z,1016.6
2018-01-28T02:06:06.956Z,1016.5
2018-01-28T02:07:08.562Z,1016.6
2018-01-28T02:08:10.170Z,1016.6
2018-01-28T02:09:11.773Z,1016.6
2018-01-28T02:10:13.382Z,1016.6
2018-01-28T02:11:14.988Z,1016.5
2018-01-28T02:12:16.587Z,1016.5
2018-01-28T02:13:18.197Z,1016.5
2018-01-28T02:14:19.798Z,1016.5
2018-01-28T02:15:21.406Z,1016.7
2018-01-28T02:16:23.015Z,1016.5
2018-01-28T02:17:24.626Z,1016.5
2018-01-28T02:18:26.235Z,1016.5
2018-01-28T02:19:27.835Z,1016.6
2018-01-28T02:20:29.440Z,1016.6
2018-01-28T02:21:31.048Z,1016.6
2018-01-28T02:22:32.655Z,1016.6
2018-01-28T02:23:34.259Z,1016.6
2018-01-28T02:24:35.865Z,1016.7
2018-01-28T02:25:37.477Z,1016.7
2018-01-28T02:26:39.081Z,1016.7
2018-01-28T02:27:40.681Z,1016.7
2018-01-28T02:28:42.292Z,1016.7
2018-01-28T02:29:43.893Z,1016.5
2018-01-28T02:30:45.499Z,1016.5
2018-01-28T02:31:47.109Z,1016.5
2018-01-28T02:32:48.718Z,1016.5
2018-01-28T02:33:50.323Z,1016.5
2018-01-28T02:34:51.924Z,1016.5
2018-01-28T02:35:53.528Z,1016.5
2018-01-28T02:36:55.135Z,1016.5
2018-01-28T02:37:56.740Z,1016.5
2018-01-28T02:38:58.344Z,1016.5
2018-01-28T02:39:59.951Z,1016.5
2018-01-28T02:41:01.552Z,1016.4
2018-01-28T02:42:03.162Z,1016.5
2018-01-28T02:43:04.763Z,1016.6
2018-01-28T02:44:06.375Z,1016.5
2018-01-28T02:45:07.976Z,1016.6
2018-01-28T02:46:09.590Z,1016.6
2018-01-28T02:47:11.197Z,1016.5
2018-01-28T02:48:12.801Z,1016.5
2018-01-28T02:49:14.403Z,1016.6
2018-01-28T02:50:16.012Z,1016.5
2018-01-28T02:51:17.621Z,1016.5
2018-01-28T02:52:19.223Z,1016.4
2018-01-28T02:53:20.831Z,1016.5
2018-01-28T02:54:22.437Z,1016.5
2018-01-28T02:55:24.041Z,1016.4
2018-01-28T02:56:25.642Z,1016.5
2018-01-28T02:57:27.253Z,1016.6
2018-01-28T02:58:28.853Z,1016.4
2018-01-28T02:59:30.466Z,1016.3
2018-01-28T03:00:32.070Z,1016.5
2018-01-28T03:01:33.681Z,1016.4
2018-01-28T03:02:35.281Z,1016.5
2018-01-28T03:03:36.890Z,1016.4
2018-01-28T03:04:38.494Z,1016.4
2018-01-28T03:05:40.104Z,1016.3
2018-01-28T03:06:41.707Z,1016.4
2018-01-28T03:07:43.317Z,1016.3
2018-01-28T03:08:44.922Z,1016.3
2018-01-28T03:09:46.529Z,1016.2
2018-01-28T03:10:48.129Z,1016.3
2018-01-28T03:11:49.737Z,1016.2
2018-01-28T03:12:51.338Z,1016.2
2018-01-28T03:13:52.949Z,1016.3
2018-01-28T03:14:54.554Z,1016.3
2018-01-28T03:15:56.164Z,1016.3
2018-01-28T03:16:57.766Z,1016.4
2018-01-28T03:17:59.370Z,1016.4
2018-01-28T03:19:00.980Z,1016.5
2018-01-28T03:20:02.583Z,1016.5
2018-01-28T03:21:04.191Z,1016.5
2018-01-28T03:22:05.799Z,1016.5
2018-01-28T03:23:07.406Z,1016.4
2018-01-28T03:24:09.008Z,1016.5
2018-01-28T03:25:10.615Z,1016.5
2018-01-28T03:26:12.218Z,1016.6
2018-01-28T03:27:13.826Z,1016.6
2018-01-28T03:28:15.430Z,1016.5
2018-01-28T03:29:17.043Z,1016.6
2018-01-28T03:30:18.644Z,1016.5
2018-01-28T03:31:20.253Z,1016.5
2018-01-28T03:32:21.854Z,1016.5
2018-01-28T03:33:23.463Z,1016.5
2018-01-28T03:34:25.078Z,1016.5
2018-01-28T03:35:26.678Z,1016.5
2018-01-28T03:36:28.285Z,1016.6
2018-01-28T03:37:29.897Z,1016.7
2018-01-28T03:38:31.504Z,1016.6
2018-01-28T03:39:33.104Z,1016.6
2018-01-28T03:40:34.708Z,1016.8
2018-01-28T03:41:36.315Z,1016.8
2018-01-28T03:42:37.927Z,1016.8
2018-01-28T03:43:39.531Z,1016.8
2018-01-28T03:44:41.137Z,1016.8
2018-01-28T03:45:42.744Z,1016.7
2018-01-28T03:46:44.351Z,1016.7
2018-01-28T03:47:45.953Z,1016.7
2018-01-28T03:48:47.559Z,1016.7
2018-01-28T03:49:49.171Z,1016.7
2018-01-28T03:50:50.774Z,1016.7
2018-01-28T03:51:52.386Z,1016.8
2018-01-28T03:52:54.051Z,1016.8
2018-01-28T03:53:55.593Z,1016.8
2018-01-28T03:54:57.198Z,1016.8
2018-01-28T03:55:58.814Z,1016.8
2018-01-28T03:57:00.422Z,1016.7
2018-01-28T03:58:02.027Z,1016.8
2018-01-28T03:59:03.634Z,1016.8
2018-01-28T04:00:05.243Z,1016.8
2018-01-28T04:01:06.852Z,1016.8
2018-01-28T04:02:08.453Z,1016.7
2018-01-28T04:03:10.058Z,1016.7
2018-01-28T04:04:11.668Z,1016.8
2018-01-28T04:05:13.276Z,1016.7
2018-01-28T04:06:14.880Z,1016.8
2018-01-28T04:07:16.486Z,1016.8
2018-01-28T04:08:18.087Z,1016.8
2018-01-28T04:09:19.692Z,1016.7
2018-01-28T04:10:21.302Z,1016.7
2018-01-28T04:11:22.909Z,1016.7
2018-01-28T04:12:24.515Z,1016.8
2018-01-28T04:13:26.123Z,1016.8
2018-01-28T04:14:27.731Z,1016.7
2018-01-28T04:15:29.340Z,1016.7
2018-01-28T04:16:30.947Z,1016.7
2018-01-28T04:17:32.555Z,1016.7
2018-01-28T04:18:34.159Z,1016.7
2018-01-28T04:19:35.766Z,1016.7
2018-01-28T04:20:37.377Z,1016.7
2018-01-28T04:21:38.985Z,1016.8
2018-01-28T04:22:40.582Z,1016.8
2018-01-28T04:23:42.187Z,1016.8
2018-01-28T04:24:43.796Z,1016.8
2018-01-28T04:25:45.404Z,1016.9
2018-01-28T04:26:47.010Z,1016.8
2018-01-28T04:27:48.613Z,1016.9
2018-01-28T04:28:50.223Z,1016.8
2018-01-28T04:29:51.830Z,1016.8
2018-01-28T04:30:53.433Z,1016.9
2018-01-28T04:31:55.040Z,1016.9
2018-01-28T04:32:56.643Z,1016.9
2018-01-28T04:33:58.253Z,1016.8
2018-01-28T04:34:59.860Z,1016.8
2018-01-28T04:36:01.464Z,1016.8
2018-01-28T04:37:03.069Z,1016.9
2018-01-28T04:38:04.677Z,1016.8
2018-01-28T04:39:06.285Z,1016.8
2018-01-28T04:40:07.889Z,1016.8
2018-01-28T04:41:09.498Z,1016.8
2018-01-28T04:42:11.104Z,1016.8
2018-01-28T04:43:12.710Z,1016.8
2018-01-28T04:44:14.314Z,1016.8
2018-01-28T04:45:15.927Z,1016.7
2018-01-28T04:46:17.529Z,1016.6
2018-01-28T04:47:19.138Z,1016.7
2018-01-28T04:48:20.745Z,1016.7
2018-01-28T04:49:22.353Z,1016.8
2018-01-28T04:50:23.962Z,1016.8
2018-01-28T04:51:25.566Z,1016.8
2018-01-28T04:52:27.174Z,1016.8
2018-01-28T04:53:28.775Z,1016.8
2018-01-28T04:54:30.381Z,1016.9
2018-01-28T04:55:31.987Z,1016.9
2018-01-28T04:56:33.599Z,1016.9
2018-01-28T04:57:35.202Z,1017.0
2018-01-28T04:58:36.809Z,1017.0
2018-01-28T04:59:38.412Z,1016.9
2018-01-28T05:00:40.026Z,1016.9
2018-01-28T05:01:41.629Z,1016.9
2018-01-28T05:02:43.242Z,1017.0
2018-01-28T05:03:44.848Z,1017.1
2018-01-28T05:04:46.455Z,1017.0
2018-01-28T05:05:48.063Z,1017.0
2018-01-28T05:06:49.666Z,1017.0
2018-01-28T05:07:51.283Z,1017.1
2018-01-28T05:08:52.883Z,1017.0
2018-01-28T05:09:54.496Z,1017.0
2018-01-28T05:10:56.103Z,1016.9
2018-01-28T05:11:57.713Z,1016.9
2018-01-28T05:12:59.320Z,1017.0
2018-01-28T05:14:00.925Z,1016.9
2018-01-28T05:15:02.539Z,1016.9
2018-01-28T05:16:04.143Z,1016.8
2018-01-28T05:17:05.755Z,1016.9
2018-01-28T05:18:07.361Z,1016.8
2018-01-28T05:19:08.968Z,1016.9
2018-01-28T05:20:10.571Z,1017.0
2018-01-28T05:21:12.178Z,1017.0
2018-01-28T05:22:13.787Z,1017.0
2018-01-28T05:23:15.393Z,1017.0
2018-01-28T05:24:17.001Z,1017.1
2018-01-28T05:25:18.606Z,1017.1
2018-01-28T05:26:20.212Z,1017.2
2018-01-28T05:27:21.815Z,1017.1
2018-01-28T05:28:23.418Z,1017.2
2018-01-28T05:29:25.030Z,1017.2
2018-01-28T05:30:26.634Z,1017.1
2018-01-28T05:31:28.247Z,1017.1
2018-01-28T05:32:29.854Z,1017.0
2018-01-28T05:33:31.464Z,1017.0
2018-01-28T05:34:33.066Z,1017.0
2018-01-28T05:35:34.672Z,1017.0
2018-01-28T05:36:36.284Z,1017.0
2018-01-28T05:37:37.889Z,1017.1
2018-01-28T05:38:39.497Z,1017.1
2018-01-28T05:39:41.103Z,1017.0
2018-01-28T05:40:42.713Z,1017.0
2018-01-28T05:41:44.317Z,1017.0
2018-01-28T05:42:45.920Z,1017.1
2018-01-28T05:43:47.530Z,1017.1
2018-01-28T05:44:49.137Z,1017.1
2018-01-28T05:45:50.746Z,1017.1
2018-01-28T05:46:52.351Z,1017.2
2018-01-28T05:47:53.954Z,1017.2
2018-01-28T05:48:55.565Z,1017.2
2018-01-28T05:49:57.170Z,1017.1
2018-01-28T05:50:58.779Z,1017.2
2018-01-28T05:52:00.382Z,1017.2
2018-01-28T05:53:01.995Z,1017.2
2018-01-28T05:54:03.601Z,1017.2
2018-01-28T05:55:05.209Z,1017.2
2018-01-28T05:56:06.817Z,1017.2
2018-01-28T05:57:08.423Z,1017.1
2018-01-28T05:58:10.028Z,1017.1
2018-01-28T05:59:11.632Z,1017.1
2018-01-28T06:00:13.244Z,1017.1
2018-01-28T06:01:14.848Z,1017.1
2018-01-28T06:02:16.451Z,1017.1
2018-01-28T06:03:18.060Z,1017.2
2018-01-28T06:04:19.663Z,1017.2
2018-01-28T06:05:21.275Z,1017.1
2018-01-28T06:06:22.879Z,1017.2
2018-01-28T06:07:24.489Z,1017.2
2018-01-28T06:08:26.095Z,1017.2
2018-01-28T06:09:27.703Z,1017.3
2018-01-28T06:10:29.313Z,1017.2
2018-01-28T06:11:30.917Z,1017.2
2018-01-28T06:12:32.519Z,1017.1
2018-01-28T06:13:34.128Z,1017.2
2018-01-28T06:14:35.737Z,1017.2
2018-01-28T06:15:37.344Z,1017.2
2018-01-28T06:16:38.949Z,1017.2
2018-01-28T06:17:40.557Z,1017.3
2018-01-28T06:18:42.161Z,1017.3
2018-01-28T06:19:43.771Z,1017.3
2018-01-28T06:20:45.378Z,1017.3
2018-01-28T06:21:46.986Z,1017.4
2018-01-28T06:22:48.593Z,1017.5
2018-01-28T06:23:50.201Z,1017.4
2018-01-28T06:24:51.808Z,1017.5
2018-01-28T06:25:53.412Z,1017.5
2018-01-28T06:26:55.018Z,1017.6
2018-01-28T06:27:56.628Z,1017.6
2018-01-28T06:28:58.238Z,1017.7
2018-01-28T06:29:59.843Z,1017.7
2018-01-28T06:31:01.449Z,1017.7
2018-01-28T06:32:03.057Z,1017.7
2018-01-28T06:33:04.664Z,1017.7
2018-01-28T06:34:06.267Z,1017.7
2018-01-28T06:35:07.876Z,1017.6
2018-01-28T06:36:09.480Z,1017.8
2018-01-28T06:37:11.086Z,1017.8
2018-01-28T06:38:12.693Z,1017.9
2018-01-28T06:39:14.304Z,1018.0
2018-01-28T06:40:15.905Z,1017.9
2018-01-28T06:41:17.511Z,1017.9
2018-01-28T06:42:19.124Z,1017.9
2018-01-28T06:43:20.734Z,1017.9
2018-01-28T06:44:22.339Z,1017.9
2018-01-28T06:45:23.940Z,1017.9
2018-01-28T06:46:25.551Z,1018.0
2018-01-28T06:47:27.158Z,1017.9
2018-01-28T06:48:28.762Z,1017.9
2018-01-28T06:49:30.368Z,1017.8
2018-01-28T06:50:31.979Z,1017.9
2018-01-28T06:51:33.584Z,1017.9
2018-01-28T06:52:35.196Z,1017.9
2018-01-28T06:53:36.798Z,1017.9
2018-01-28T06:54:38.411Z,1018.0
2018-01-28T06:55:40.014Z,1018.0
2018-01-28T06:56:41.630Z,1018.0
2018-01-28T06:57:43.232Z,1018.0
2018-01-28T06:58:44.844Z,1018.0
2018-01-28T06:59:46.446Z,1018.0
2018-01-28T07:00:48.059Z,1018.1
2018-01-28T07:01:49.663Z,1018.0
2018-01-28T07:02:51.834Z,1018.0
2018-01-28T07:03:53.436Z,1017.9
2018-01-28T07:04:55.050Z,1018.0
2018-01-28T07:05:56.658Z,1018.0
2018-01-28T07:06:58.268Z,1018.0
2018-01-28T07:07:59.877Z,1018.0
2018-01-28T07:09:01.482Z,1018.0
2018-01-28T07:10:03.095Z,1018.0
2018-01-28T07:11:04.700Z,1018.0
2018-01-28T07:12:06.314Z,1018.1
2018-01-28T07:13:07.920Z,1018.2
2018-01-28T07:14:09.528Z,1018.1
2018-01-28T07:15:11.133Z,1018.1
2018-01-28T07:16:12.743Z,1018.1
2018-01-28T07:17:14.350Z,1018.1
2018-01-28T07:18:15.961Z,1018.0
2018-01-28T07:19:17.565Z,1018.1
2018-01-28T07:20:19.178Z,1018.1
2018-01-28T07:21:20.783Z,1018.1
2018-01-28T07:22:22.392Z,1018.1
2018-01-28T07:23:26.931Z,1018.1
2018-01-28T07:24:28.559Z,1018.1
2018-01-28T07:25:30.198Z,1018.1
2018-01-28T07:26:31.781Z,1018.1
2018-01-28T07:27:33.386Z,1018.2
2018-01-28T07:28:34.998Z,1018.2
2018-01-28T07:29:36.603Z,1018.2
2018-01-28T07:30:38.214Z,1018.2
2018-01-28T07:31:39.821Z,1018.3
2018-01-28T07:32:41.429Z,1018.3
2018-01-28T07:33:43.042Z,1018.3
2018-01-28T07:34:44.658Z,1018.4
2018-01-28T07:35:46.261Z,1018.3
2018-01-28T07:36:47.871Z,1018.3
2018-01-28T07:37:49.482Z,1018.3
2018-01-28T07:38:51.094Z,1018.4
2018-01-28T07:39:52.698Z,1018.4
2018-01-28T07:40:54.311Z,1018.5
2018-01-28T07:41:55.926Z,1018.4
2018-01-28T07:42:57.536Z,1018.4
2018-01-28T07:43:59.145Z,1018.5
2018-01-28T07:45:00.760Z,1018.4
2018-01-28T07:46:02.378Z,1018.5
2018-01-28T07:47:03.989Z,1018.5
2018-01-28T07:48:05.614Z,1018.5
2018-01-28T07:49:07.221Z,1018.5
2018-01-28T07:50:08.818Z,1018.5
2018-01-28T07:51:10.426Z,1018.6
2018-01-28T07:52:12.042Z,1018.5
2018-01-28T07:53:13.657Z,1018.6
2018-01-28T07:54:15.265Z,1018.6
2018-01-28T07:55:16.907Z,1018.6
2018-01-28T07:56:19.313Z,1018.6
2018-01-28T07:57:20.919Z,1018.6
2018-01-28T07:58:22.649Z,1018.6
2018-01-28T07:59:25.093Z,1018.5
2018-01-28T08:00:26.782Z,1018.6
2018-01-28T08:01:28.412Z,1018.6
2018-01-28T08:02:30.023Z,1018.5
2018-01-28T08:03:34.097Z,1018.5
2018-01-28T08:04:34.987Z,1018.6
2018-01-28T08:05:36.600Z,1018.6
2018-01-28T08:06:38.215Z,1018.6
2018-01-28T08:07:40.520Z,1018.6
2018-01-28T08:08:44.617Z,1018.7
2018-01-28T08:09:46.195Z,1018.7
2018-01-28T08:10:47.807Z,1018.7
2018-01-28T08:11:49.420Z,1018.7
2018-01-28T08:12:51.047Z,1018.7
2018-01-28T08:13:52.660Z,1018.7
2018-01-28T08:14:54.271Z,1018.6
2018-01-28T08:15:55.879Z,1018.6
2018-01-28T08:16:57.497Z,1018.7
2018-01-28T08:17:59.107Z,1018.7
2018-01-28T08:19:00.722Z,1018.7
2018-01-28T08:20:02.329Z,1018.7
2018-01-28T08:21:03.942Z,1018.6
2018-01-28T08:22:05.553Z,1018.7
2018-01-28T08:23:07.162Z,1018.7
2018-01-28T08:24:08.788Z,1018.7
2018-01-28T08:25:10.412Z,1018.7
2018-01-28T08:26:12.022Z,1018.8
2018-01-28T08:27:13.632Z,1018.8
2018-01-28T08:28:15.245Z,1018.8
2018-01-28T08:29:16.852Z,1018.7
2018-01-28T08:30:18.467Z,1018.7
2018-01-28T08:31:20.077Z,1018.7
2018-01-28T08:32:21.689Z,1018.7
2018-01-28T08:33:23.304Z,1018.7
2018-01-28T08:34:24.917Z,1018.7
2018-01-28T08:35:26.530Z,1018.7
2018-01-28T08:36:28.135Z,1018.7
2018-01-28T08:37:29.748Z,1018.6
2018-01-28T08:38:31.357Z,1018.7
2018-01-28T08:39:32.974Z,1018.7
2018-01-28T08:40:34.583Z,1018.7
2018-01-28T08:41:36.192Z,1018.8
2018-01-28T08:42:37.822Z,1018.7
2018-01-28T08:43:39.433Z,1018.7
2018-01-28T08:44:41.043Z,1018.7
2018-01-28T08:45:42.654Z,1018.7
2018-01-28T08:46:44.472Z,1018.6
2018-01-28T08:47:46.051Z,1018.7
2018-01-28T08:48:47.657Z,1018.7
2018-01-28T08:49:49.274Z,1018.7
2018-01-28T08:50:50.883Z,1018.7
2018-01-28T08:51:52.502Z,1018.7
2018-01-28T08:52:54.110Z,1018.6
2018-01-28T08:53:55.726Z,1018.7
2018-01-28T08:54:57.340Z,1018.6
2018-01-28T08:55:58.954Z,1018.7
2018-01-28T08:57:00.567Z,1018.6
2018-01-28T08:58:02.195Z,1018.7
2018-01-28T08:59:03.805Z,1018.6
2018-01-28T09:00:05.422Z,1018.7
2018-01-28T09:01:07.036Z,1018.7
2018-01-28T09:02:08.649Z,1018.7
2018-01-28T09:03:10.263Z,1018.7
2018-01-28T09:04:11.869Z,1018.6
2018-01-28T09:05:13.485Z,1018.7
2018-01-28T09:06:15.093Z,1018.7
2018-01-28T09:07:16.711Z,1018.8
2018-01-28T09:08:18.321Z,1018.8
2018-01-28T09:09:19.935Z,1018.8
2018-01-28T09:10:21.719Z,1018.7
2018-01-28T09:11:23.336Z,1018.7
2018-01-28T09:12:24.946Z,1018.8
2018-01-28T09:13:26.563Z,1018.8
2018-01-28T09:14:28.173Z,1018.8
2018-01-28T09:15:29.792Z,1018.8
2018-01-28T09:16:31.404Z,1018.8
2018-01-28T09:17:33.015Z,1018.8
2018-01-28T09:18:34.633Z,1018.8
2018-01-28T09:19:36.247Z,1018.9
2018-01-28T09:20:37.858Z,1018.8
2018-01-28T09:21:39.474Z,1018.9
2018-01-28T09:22:41.091Z,1019.0
2018-01-28T09:23:42.704Z,1018.9
2018-01-28T09:24:44.312Z,1019.0
2018-01-28T09:25:45.921Z,1018.9
2018-01-28T09:26:47.539Z,1018.9
2018-01-28T09:27:49.152Z,1018.9
2018-01-28T09:28:50.772Z,1018.8
2018-01-28T09:29:52.382Z,1018.9
2018-01-28T09:30:54.073Z,1019.0
2018-01-28T09:31:55.694Z,1019.0
2018-01-28T09:32:57.300Z,1018.9
2018-01-28T09:33:58.920Z,1019.0
2018-01-28T09:35:00.534Z,1019.0
2018-01-28T09:36:02.157Z,1019.0
2018-01-28T09:37:03.774Z,1019.0
2018-01-28T09:38:05.379Z,1019.0
2018-01-28T09:39:06.992Z,1019.0
2018-01-28T09:40:08.600Z,1019.1
2018-01-28T09:41:10.218Z,1019.1
2018-01-28T09:42:11.831Z,1019.1
2018-01-28T09:43:13.447Z,1019.1
2018-01-28T09:44:15.058Z,1019.2
2018-01-28T09:45:16.667Z,1019.2
2018-01-28T09:46:18.284Z,1019.0
2018-01-28T09:47:19.893Z,1019.1
2018-01-28T09:48:21.511Z,1019.2
2018-01-28T09:49:23.124Z,1019.1
2018-01-28T09:50:24.734Z,1019.2
2018-01-28T09:51:26.349Z,1019.1
2018-01-28T09:52:27.964Z,1019.1
2018-01-28T09:53:29.590Z,1019.2
2018-01-28T09:54:31.206Z,1019.3
2018-01-28T09:55:32.818Z,1019.2
2018-01-28T09:56:34.435Z,1019.3
2018-01-28T09:57:36.044Z,1019.3
2018-01-28T09:58:37.666Z,1019.3
2018-01-28T09:59:39.273Z,1019.4
2018-01-28T10:00:40.935Z,1019.4
2018-01-28T10:01:43.089Z,1019.3
2018-01-28T10:02:44.701Z,1019.3
2018-01-28T10:03:46.317Z,1019.4
2018-01-28T10:04:47.929Z,1019.3
2018-01-28T10:05:49.550Z,1019.4
2018-01-28T10:06:51.163Z,1019.5
2018-01-28T10:07:52.777Z,1019.4
2018-01-28T10:08:54.392Z,1019.5
2018-01-28T10:09:56.004Z,1019.5
2018-01-28T10:10:57.674Z,1019.5
2018-01-28T10:11:59.297Z,1019.7
2018-01-28T10:13:00.985Z,1019.7
2018-01-28T10:14:02.597Z,1019.7
2018-01-28T10:15:04.208Z,1019.7
2018-01-28T10:16:05.824Z,1019.7
2018-01-28T10:17:07.441Z,1019.8
2018-01-28T10:18:09.052Z,1019.8
2018-01-28T10:19:10.674Z,1019.7
2018-01-28T10:20:12.285Z,1019.8
2018-01-28T10:21:13.893Z,1019.8
2018-01-28T10:22:15.509Z,1019.8
2018-01-28T10:23:17.117Z,1019.8
2018-01-28T10:24:18.730Z,1019.8
2018-01-28T10:25:20.344Z,1019.8
2018-01-28T10:26:21.962Z,1019.8
2018-01-28T10:27:23.613Z,1019.8
2018-01-28T10:28:25.190Z,1019.8
2018-01-28T10:29:26.804Z,1019.8
2018-01-28T10:30:28.419Z,1019.8
2018-01-28T10:31:30.036Z,1019.8
2018-01-28T10:32:31.649Z,1019.8
2018-01-28T10:33:33.262Z,1019.8
2018-01-28T10:34:34.877Z,1019.7
2018-01-28T10:35:36.569Z,1019.7
2018-01-28T10:36:38.177Z,1019.7
2018-01-28T10:37:39.790Z,1019.6
2018-01-28T10:38:41.403Z,1019.7
2018-01-28T10:39:43.024Z,1019.6
2018-01-28T10:40:44.641Z,1019.7
2018-01-28T10:41:46.254Z,1019.7
2018-01-28T10:42:47.873Z,1019.7
2018-01-28T10:43:49.486Z,1019.7
2018-01-28T10:44:51.095Z,1019.6
2018-01-28T10:45:52.708Z,1019.7
2018-01-28T10:46:54.327Z,1019.6
2018-01-28T10:47:55.944Z,1019.5
2018-01-28T10:48:57.555Z,1019.5
2018-01-28T10:49:59.165Z,1019.6
2018-01-28T10:51:00.783Z,1019.5
2018-01-28T10:52:02.394Z,1019.6
2018-01-28T10:53:04.023Z,1019.6
2018-01-28T10:54:05.638Z,1019.6
2018-01-28T10:55:07.258Z,1019.6
2018-01-28T10:56:08.871Z,1019.6
2018-01-28T10:57:10.490Z,1019.6
2018-01-28T10:58:12.156Z,1019.6
2018-01-28T10:59:13.734Z,1019.5
2018-01-28T11:00:15.345Z,1019.5
2018-01-28T11:01:16.965Z,1019.5
2018-01-28T11:02:18.579Z,1019.5
2018-01-28T11:03:20.201Z,1019.6
2018-01-28T11:04:21.810Z,1019.6
2018-01-28T11:05:23.430Z,1019.6
2018-01-28T11:06:25.047Z,1019.5
2018-01-28T11:07:26.659Z,1019.5
2018-01-28T11:08:28.279Z,1019.6
2018-01-28T11:09:29.894Z,1019.5
2018-01-28T11:10:31.535Z,1019.6
2018-01-28T11:11:33.123Z,1019.6
2018-01-28T11:12:34.742Z,1019.5
2018-01-28T11:13:36.354Z,1019.6
2018-01-28T11:14:37.971Z,1019.7
2018-01-28T11:15:39.667Z,1019.6
2018-01-28T11:16:41.293Z,1019.6
2018-01-28T11:17:42.905Z,1019.6
2018-01-28T11:18:44.522Z,1019.5
2018-01-28T11:19:46.134Z,1019.5
2018-01-28T11:20:47.758Z,1019.5
2018-01-28T11:21:49.371Z,1019.5
2018-01-28T11:22:51.000Z,1019.5
2018-01-28T11:23:52.618Z,1019.5
2018-01-28T11:24:54.243Z,1019.5
2018-01-28T11:25:55.850Z,1019.5
2018-01-28T11:26:57.465Z,1019.5
2018-01-28T11:27:59.080Z,1019.5
2018-01-28T11:29:00.699Z,1019.4
2018-01-28T11:30:02.311Z,1019.5
2018-01-28T11:31:03.926Z,1019.5
2018-01-28T11:32:05.548Z,1019.5
2018-01-28T11:33:07.163Z,1019.5
2018-01-28T11:34:08.775Z,1019.5
2018-01-28T11:35:10.394Z,1019.5
2018-01-28T11:36:12.007Z,1019.5
2018-01-28T11:37:13.626Z,1019.5
2018-01-28T11:38:15.241Z,1019.5
2018-01-28T11:39:16.869Z,1019.4
2018-01-28T11:40:18.473Z,1019.5
2018-01-28T11:41:20.088Z,1019.4
2018-01-28T11:42:21.707Z,1019.6
2018-01-28T11:43:23.388Z,1019.6
2018-01-28T11:44:25.017Z,1019.6
2018-01-28T11:45:26.635Z,1019.6
2018-01-28T11:46:28.256Z,1019.5
2018-01-28T11:47:29.869Z,1019.5
2018-01-28T11:48:31.485Z,1019.5
2018-01-28T11:49:33.099Z,1019.5
2018-01-28T11:50:34.757Z,1019.5
2018-01-28T11:51:36.333Z,1019.4
2018-01-28T11:52:37.957Z,1019.5
2018-01-28T11:53:39.644Z,1019.5
2018-01-28T11:54:41.342Z,1019.5
2018-01-28T11:55:42.967Z,1019.5
2018-01-28T11:56:44.587Z,1019.5
2018-01-28T11:57:46.200Z,1019.5
2018-01-28T11:58:47.818Z,1019.5
2018-01-28T11:59:49.432Z,1019.5
2018-01-28T12:00:51.051Z,1019.6
2018-01-28T12:01:52.665Z,1019.6
2018-01-28T12:02:54.285Z,1019.7
2018-01-28T12:03:55.901Z,1019.6
2018-01-28T12:04:57.517Z,1019.7
2018-01-28T12:05:59.142Z,1019.7
2018-01-28T12:07:00.756Z,1019.7
2018-01-28T12:08:02.377Z,1019.7
2018-01-28T12:09:04.027Z,1019.6
2018-01-28T12:10:05.649Z,1019.6
2018-01-28T12:11:07.262Z,1019.6
2018-01-28T12:12:08.884Z,1019.6
2018-01-28T12:13:10.496Z,1019.6
2018-01-28T12:14:12.117Z,1019.6
2018-01-28T12:15:13.731Z,1019.7
2018-01-28T12:16:15.350Z,1019.7
2018-01-28T12:17:16.993Z,1019.6
2018-01-28T12:18:18.698Z,1019.6
2018-01-28T12:19:20.313Z,1019.6
2018-01-28T12:20:21.929Z,1019.6
2018-01-28T12:21:23.563Z,1019.6
2018-01-28T12:22:25.183Z,1019.6
2018-01-28T12:23:26.795Z,1019.6
2018-01-28T12:24:28.410Z,1019.6
2018-01-28T12:25:30.026Z,1019.6
2018-01-28T12:26:31.644Z,1019.7
2018-01-28T12:27:33.258Z,1019.6
2018-01-28T12:28:34.876Z,1019.6
2018-01-28T12:29:36.494Z,1019.5
2018-01-28T12:30:38.111Z,1019.5
2018-01-28T12:31:39.726Z,1019.4
2018-01-28T12:32:41.340Z,1019.4
2018-01-28T12:33:42.959Z,1019.4
2018-01-28T12:34:44.577Z,1019.4
2018-01-28T12:35:46.190Z,1019.5
2018-01-28T12:36:47.862Z,1019.5
2018-01-28T12:37:49.422Z,1019.4
2018-01-28T12:38:51.038Z,1019.4
2018-01-28T12:39:52.658Z,1019.4
2018-01-28T12:40:54.276Z,1019.4
2018-01-28T12:41:55.889Z,1019.5
2018-01-28T12:42:57.510Z,1019.5
2018-01-28T12:43:59.207Z,1019.5
2018-01-28T12:45:00.943Z,1019.4
2018-01-28T12:46:02.551Z,1019.5
2018-01-28T12:47:04.167Z,1019.5
2018-01-28T12:48:05.786Z,1019.5
2018-01-28T12:49:07.403Z,1019.4